sensor_id;sensor_type;location;lat;lon;timestamp;P1;durP1;ratioP1;P2;durP2;ratioP2
41293;SDS011;27037;52.010;4.446;2023-03-01T00:01:46;23.33;;;15.63;;
41293;SDS011;27037;52.010;4.446;2023-03-01T00:04:12;29.38;;;16.25;;
41293;SDS011;27037;52.010;4.446;2023-03-01T00:06:38;24.27;;;15.27;;
41293;SDS011;27037;52.010;4.446;2023-03-01T00:09:03;30.02;;;16.63;;
41293;SDS011;27037;52.010;4.446;2023-03-01T00:11:30;25.00;;;16.35;;
41293;SDS011;27037;52.010;4.446;2023-03-01T00:13:57;28.50;;;15.82;;
41293;SDS011;27037;52.010;4.446;2023-03-01T00:16:32;29.02;;;16.58;;
41293;SDS011;27037;52.010;4.446;2023-03-01T00:19:06;23.75;;;15.60;;
41293;SDS011;27037;52.010;4.446;2023-03-01T00:21:34;27.63;;;16.65;;
41293;SDS011;27037;52.010;4.446;2023-03-01T00:24:00;26.92;;;16.50;;
41293;SDS011;27037;52.010;4.446;2023-03-01T00:26:27;24.35;;;15.07;;
41293;SDS011;27037;52.010;4.446;2023-03-01T00:28:53;28.08;;;16.27;;
41293;SDS011;27037;52.010;4.446;2023-03-01T00:31:23;27.42;;;16.70;;
41293;SDS011;27037;52.010;4.446;2023-03-01T00:33:53;29.58;;;17.38;;
41293;SDS011;27037;52.010;4.446;2023-03-01T00:36:24;27.33;;;17.08;;
41293;SDS011;27037;52.010;4.446;2023-03-01T00:38:52;27.17;;;17.23;;
41293;SDS011;27037;52.010;4.446;2023-03-01T00:41:18;25.92;;;15.93;;
41293;SDS011;27037;52.010;4.446;2023-03-01T00:43:45;30.35;;;17.25;;
41293;SDS011;27037;52.010;4.446;2023-03-01T00:46:12;29.67;;;17.90;;
41293;SDS011;27037;52.010;4.446;2023-03-01T00:48:40;32.95;;;17.40;;
41293;SDS011;27037;52.010;4.446;2023-03-01T00:51:10;30.15;;;17.30;;
41293;SDS011;27037;52.010;4.446;2023-03-01T00:53:38;28.48;;;17.00;;
41293;SDS011;27037;52.010;4.446;2023-03-01T00:56:05;28.80;;;17.17;;
41293;SDS011;27037;52.010;4.446;2023-03-01T00:58:32;28.77;;;17.42;;
41293;SDS011;27037;52.010;4.446;2023-03-01T01:00:59;31.48;;;17.95;;
41293;SDS011;27037;52.010;4.446;2023-03-01T01:03:24;34.92;;;18.30;;
41293;SDS011;27037;52.010;4.446;2023-03-01T01:05:51;30.90;;;18.67;;
41293;SDS011;27037;52.010;4.446;2023-03-01T01:08:18;33.35;;;18.08;;
41293;SDS011;27037;52.010;4.446;2023-03-01T01:10:45;32.38;;;19.58;;
41293;SDS011;27037;52.010;4.446;2023-03-01T01:13:10;34.20;;;18.88;;
41293;SDS011;27037;52.010;4.446;2023-03-01T01:15:36;34.80;;;18.75;;
41293;SDS011;27037;52.010;4.446;2023-03-01T01:18:02;35.60;;;19.15;;
41293;SDS011;27037;52.010;4.446;2023-03-01T01:20:28;36.78;;;18.48;;
41293;SDS011;27037;52.010;4.446;2023-03-01T01:22:53;32.83;;;19.55;;
41293;SDS011;27037;52.010;4.446;2023-03-01T01:25:19;37.60;;;20.10;;
41293;SDS011;27037;52.010;4.446;2023-03-01T01:27:45;33.70;;;19.33;;
41293;SDS011;27037;52.010;4.446;2023-03-01T01:30:10;34.70;;;19.67;;
41293;SDS011;27037;52.010;4.446;2023-03-01T01:32:37;33.47;;;19.35;;
41293;SDS011;27037;52.010;4.446;2023-03-01T01:35:02;35.72;;;19.75;;
41293;SDS011;27037;52.010;4.446;2023-03-01T01:37:28;32.88;;;19.40;;
41293;SDS011;27037;52.010;4.446;2023-03-01T01:39:56;33.42;;;18.80;;
41293;SDS011;27037;52.010;4.446;2023-03-01T01:42:24;34.55;;;18.83;;
41293;SDS011;27037;52.010;4.446;2023-03-01T01:45:16;37.95;;;19.33;;
41293;SDS011;27037;52.010;4.446;2023-03-01T01:48:05;31.80;;;18.83;;
41293;SDS011;27037;52.010;4.446;2023-03-01T01:50:35;34.42;;;18.58;;
41293;SDS011;27037;52.010;4.446;2023-03-01T01:53:05;34.42;;;19.25;;
41293;SDS011;27037;52.010;4.446;2023-03-01T01:55:35;34.38;;;19.15;;
41293;SDS011;27037;52.010;4.446;2023-03-01T01:58:04;33.63;;;19.20;;
41293;SDS011;27037;52.010;4.446;2023-03-01T02:00:33;32.95;;;19.45;;
41293;SDS011;27037;52.010;4.446;2023-03-01T02:03:02;35.20;;;18.98;;
41293;SDS011;27037;52.010;4.446;2023-03-01T02:08:20;34.95;;;19.67;;
41293;SDS011;27037;52.010;4.446;2023-03-01T02:10:49;36.30;;;20.60;;
41293;SDS011;27037;52.010;4.446;2023-03-01T02:13:16;35.00;;;19.40;;
41293;SDS011;27037;52.010;4.446;2023-03-01T02:15:42;33.45;;;19.45;;
41293;SDS011;27037;52.010;4.446;2023-03-01T02:18:12;34.60;;;19.67;;
41293;SDS011;27037;52.010;4.446;2023-03-01T02:23:33;36.05;;;19.70;;
41293;SDS011;27037;52.010;4.446;2023-03-01T02:30:55;35.40;;;20.33;;
41293;SDS011;27037;52.010;4.446;2023-03-01T02:33:39;37.22;;;20.75;;
41293;SDS011;27037;52.010;4.446;2023-03-01T02:36:06;35.13;;;19.63;;
41293;SDS011;27037;52.010;4.446;2023-03-01T02:38:36;37.88;;;21.42;;
41293;SDS011;27037;52.010;4.446;2023-03-01T02:41:02;40.17;;;21.52;;
41293;SDS011;27037;52.010;4.446;2023-03-01T02:43:30;35.63;;;20.50;;
41293;SDS011;27037;52.010;4.446;2023-03-01T02:45:58;43.10;;;22.50;;
41293;SDS011;27037;52.010;4.446;2023-03-01T02:48:39;44.08;;;22.85;;
41293;SDS011;27037;52.010;4.446;2023-03-01T02:54:10;42.30;;;22.63;;
41293;SDS011;27037;52.010;4.446;2023-03-01T02:56:37;45.67;;;23.95;;
41293;SDS011;27037;52.010;4.446;2023-03-01T02:59:02;46.25;;;23.98;;
41293;SDS011;27037;52.010;4.446;2023-03-01T03:01:29;44.80;;;24.15;;
41293;SDS011;27037;52.010;4.446;2023-03-01T03:04:01;46.63;;;24.73;;
41293;SDS011;27037;52.010;4.446;2023-03-01T03:06:28;47.75;;;24.95;;
41293;SDS011;27037;52.010;4.446;2023-03-01T03:08:54;47.25;;;26.20;;
41293;SDS011;27037;52.010;4.446;2023-03-01T03:11:20;48.05;;;25.80;;
41293;SDS011;27037;52.010;4.446;2023-03-01T03:13:45;47.15;;;25.30;;
41293;SDS011;27037;52.010;4.446;2023-03-01T03:16:13;49.83;;;25.75;;
41293;SDS011;27037;52.010;4.446;2023-03-01T03:18:39;53.13;;;26.55;;
41293;SDS011;27037;52.010;4.446;2023-03-01T03:21:07;50.58;;;25.83;;
41293;SDS011;27037;52.010;4.446;2023-03-01T03:23:37;53.15;;;26.40;;
41293;SDS011;27037;52.010;4.446;2023-03-01T03:26:04;52.85;;;26.25;;
41293;SDS011;27037;52.010;4.446;2023-03-01T03:28:30;48.55;;;25.63;;
41293;SDS011;27037;52.010;4.446;2023-03-01T03:30:57;56.40;;;28.42;;
41293;SDS011;27037;52.010;4.446;2023-03-01T03:33:23;48.60;;;26.65;;
41293;SDS011;27037;52.010;4.446;2023-03-01T03:35:49;46.90;;;25.98;;
41293;SDS011;27037;52.010;4.446;2023-03-01T03:38:17;52.42;;;25.55;;
41293;SDS011;27037;52.010;4.446;2023-03-01T03:40:47;50.53;;;26.95;;
41293;SDS011;27037;52.010;4.446;2023-03-01T03:43:20;49.00;;;26.30;;
41293;SDS011;27037;52.010;4.446;2023-03-01T03:45:48;48.20;;;25.80;;
41293;SDS011;27037;52.010;4.446;2023-03-01T03:48:15;50.33;;;25.65;;
41293;SDS011;27037;52.010;4.446;2023-03-01T03:50:46;46.83;;;24.08;;
41293;SDS011;27037;52.010;4.446;2023-03-01T03:53:13;44.42;;;24.38;;
41293;SDS011;27037;52.010;4.446;2023-03-01T03:55:40;45.38;;;23.98;;
41293;SDS011;27037;52.010;4.446;2023-03-01T03:58:07;45.53;;;23.73;;
41293;SDS011;27037;52.010;4.446;2023-03-01T04:00:38;43.28;;;24.00;;
41293;SDS011;27037;52.010;4.446;2023-03-01T04:03:09;43.15;;;23.80;;
41293;SDS011;27037;52.010;4.446;2023-03-01T04:05:36;45.55;;;23.77;;
41293;SDS011;27037;52.010;4.446;2023-03-01T04:08:02;45.78;;;24.67;;
41293;SDS011;27037;52.010;4.446;2023-03-01T04:10:33;44.25;;;23.10;;
41293;SDS011;27037;52.010;4.446;2023-03-01T04:13:01;44.17;;;24.30;;
41293;SDS011;27037;52.010;4.446;2023-03-01T04:15:27;48.13;;;24.67;;
41293;SDS011;27037;52.010;4.446;2023-03-01T04:17:53;42.40;;;22.60;;
41293;SDS011;27037;52.010;4.446;2023-03-01T04:20:21;45.75;;;24.08;;
41293;SDS011;27037;52.010;4.446;2023-03-01T04:23:06;47.42;;;24.25;;
41293;SDS011;27037;52.010;4.446;2023-03-01T04:25:49;46.15;;;23.30;;
41293;SDS011;27037;52.010;4.446;2023-03-01T04:28:22;47.97;;;24.58;;
41293;SDS011;27037;52.010;4.446;2023-03-01T04:30:54;49.42;;;24.23;;
41293;SDS011;27037;52.010;4.446;2023-03-01T04:33:23;47.35;;;24.05;;
41293;SDS011;27037;52.010;4.446;2023-03-01T04:35:49;43.40;;;23.80;;
41293;SDS011;27037;52.010;4.446;2023-03-01T04:38:16;42.58;;;23.17;;
41293;SDS011;27037;52.010;4.446;2023-03-01T04:40:43;43.25;;;23.27;;
41293;SDS011;27037;52.010;4.446;2023-03-01T04:43:09;44.30;;;24.77;;
41293;SDS011;27037;52.010;4.446;2023-03-01T04:45:38;44.40;;;23.85;;
41293;SDS011;27037;52.010;4.446;2023-03-01T04:48:03;44.88;;;23.40;;
41293;SDS011;27037;52.010;4.446;2023-03-01T04:50:29;45.03;;;24.15;;
41293;SDS011;27037;52.010;4.446;2023-03-01T04:52:55;48.17;;;24.30;;
41293;SDS011;27037;52.010;4.446;2023-03-01T04:55:27;50.58;;;24.77;;
41293;SDS011;27037;52.010;4.446;2023-03-01T04:57:53;53.33;;;25.50;;
41293;SDS011;27037;52.010;4.446;2023-03-01T05:00:19;58.35;;;28.60;;
41293;SDS011;27037;52.010;4.446;2023-03-01T05:05:18;60.83;;;29.38;;
41293;SDS011;27037;52.010;4.446;2023-03-01T05:07:46;61.88;;;29.63;;
41293;SDS011;27037;52.010;4.446;2023-03-01T05:10:12;167.40;;;31.55;;
41293;SDS011;27037;52.010;4.446;2023-03-01T05:12:37;53.10;;;27.67;;
41293;SDS011;27037;52.010;4.446;2023-03-01T05:15:04;54.00;;;27.95;;
41293;SDS011;27037;52.010;4.446;2023-03-01T05:17:32;54.33;;;27.65;;
41293;SDS011;27037;52.010;4.446;2023-03-01T05:19:59;55.80;;;27.58;;
41293;SDS011;27037;52.010;4.446;2023-03-01T05:22:25;55.38;;;27.95;;
41293;SDS011;27037;52.010;4.446;2023-03-01T05:24:51;51.38;;;26.35;;
41293;SDS011;27037;52.010;4.446;2023-03-01T05:27:18;51.08;;;27.27;;
41293;SDS011;27037;52.010;4.446;2023-03-01T05:29:47;50.00;;;26.85;;
41293;SDS011;27037;52.010;4.446;2023-03-01T05:32:13;49.05;;;25.65;;
41293;SDS011;27037;52.010;4.446;2023-03-01T05:34:40;50.00;;;26.55;;
41293;SDS011;27037;52.010;4.446;2023-03-01T05:37:06;49.33;;;27.13;;
41293;SDS011;27037;52.010;4.446;2023-03-01T05:39:32;53.95;;;27.00;;
41293;SDS011;27037;52.010;4.446;2023-03-01T05:41:59;47.78;;;26.85;;
41293;SDS011;27037;52.010;4.446;2023-03-01T05:44:26;48.20;;;26.00;;
41293;SDS011;27037;52.010;4.446;2023-03-01T05:46:52;49.55;;;26.88;;
41293;SDS011;27037;52.010;4.446;2023-03-01T05:49:18;49.13;;;26.33;;
41293;SDS011;27037;52.010;4.446;2023-03-01T05:51:48;47.42;;;25.08;;
41293;SDS011;27037;52.010;4.446;2023-03-01T05:54:16;47.08;;;25.80;;
41293;SDS011;27037;52.010;4.446;2023-03-01T05:56:42;44.42;;;24.65;;
41293;SDS011;27037;52.010;4.446;2023-03-01T05:59:08;47.60;;;25.77;;
41293;SDS011;27037;52.010;4.446;2023-03-01T06:01:34;44.72;;;24.05;;
41293;SDS011;27037;52.010;4.446;2023-03-01T06:04:01;45.63;;;24.15;;
41293;SDS011;27037;52.010;4.446;2023-03-01T06:06:27;44.72;;;23.85;;
41293;SDS011;27037;52.010;4.446;2023-03-01T06:08:53;45.70;;;24.48;;
41293;SDS011;27037;52.010;4.446;2023-03-01T06:11:19;45.72;;;25.25;;
41293;SDS011;27037;52.010;4.446;2023-03-01T06:13:46;46.47;;;25.83;;
41293;SDS011;27037;52.010;4.446;2023-03-01T06:16:12;48.05;;;25.42;;
41293;SDS011;27037;52.010;4.446;2023-03-01T06:18:38;44.58;;;25.45;;
41293;SDS011;27037;52.010;4.446;2023-03-01T06:21:04;46.95;;;25.73;;
41293;SDS011;27037;52.010;4.446;2023-03-01T06:23:31;45.50;;;25.33;;
41293;SDS011;27037;52.010;4.446;2023-03-01T06:25:58;45.15;;;24.35;;
41293;SDS011;27037;52.010;4.446;2023-03-01T06:28:24;43.95;;;24.55;;
41293;SDS011;27037;52.010;4.446;2023-03-01T06:30:50;47.42;;;25.52;;
41293;SDS011;27037;52.010;4.446;2023-03-01T06:33:16;42.95;;;24.05;;
41293;SDS011;27037;52.010;4.446;2023-03-01T06:35:45;42.88;;;24.38;;
41293;SDS011;27037;52.010;4.446;2023-03-01T06:38:11;45.60;;;24.92;;
41293;SDS011;27037;52.010;4.446;2023-03-01T06:40:39;45.95;;;25.33;;
41293;SDS011;27037;52.010;4.446;2023-03-01T06:43:06;42.35;;;24.38;;
41293;SDS011;27037;52.010;4.446;2023-03-01T06:45:32;41.38;;;23.60;;
41293;SDS011;27037;52.010;4.446;2023-03-01T06:48:02;44.25;;;24.30;;
41293;SDS011;27037;52.010;4.446;2023-03-01T06:50:31;45.88;;;24.35;;
41293;SDS011;27037;52.010;4.446;2023-03-01T06:52:58;44.55;;;23.80;;
41293;SDS011;27037;52.010;4.446;2023-03-01T06:55:24;44.63;;;24.30;;
41293;SDS011;27037;52.010;4.446;2023-03-01T06:58:08;44.03;;;24.52;;
41293;SDS011;27037;52.010;4.446;2023-03-01T07:00:34;44.47;;;24.88;;
41293;SDS011;27037;52.010;4.446;2023-03-01T07:03:00;45.75;;;24.67;;
41293;SDS011;27037;52.010;4.446;2023-03-01T07:05:27;46.47;;;25.35;;
41293;SDS011;27037;52.010;4.446;2023-03-01T07:07:53;47.33;;;25.83;;
41293;SDS011;27037;52.010;4.446;2023-03-01T07:10:20;43.53;;;24.08;;
41293;SDS011;27037;52.010;4.446;2023-03-01T07:12:46;49.42;;;25.15;;
41293;SDS011;27037;52.010;4.446;2023-03-01T07:15:11;41.83;;;23.83;;
41293;SDS011;27037;52.010;4.446;2023-03-01T07:17:37;44.92;;;24.85;;
41293;SDS011;27037;52.010;4.446;2023-03-01T07:20:03;44.47;;;24.63;;
41293;SDS011;27037;52.010;4.446;2023-03-01T07:22:29;48.13;;;25.58;;
41293;SDS011;27037;52.010;4.446;2023-03-01T07:24:54;47.45;;;25.60;;
41293;SDS011;27037;52.010;4.446;2023-03-01T07:27:21;45.35;;;24.40;;
41293;SDS011;27037;52.010;4.446;2023-03-01T07:29:47;45.65;;;23.98;;
41293;SDS011;27037;52.010;4.446;2023-03-01T07:32:12;46.65;;;25.38;;
41293;SDS011;27037;52.010;4.446;2023-03-01T07:34:38;48.67;;;25.27;;
41293;SDS011;27037;52.010;4.446;2023-03-01T07:37:03;48.67;;;25.60;;
41293;SDS011;27037;52.010;4.446;2023-03-01T07:39:29;46.13;;;25.33;;
41293;SDS011;27037;52.010;4.446;2023-03-01T07:41:57;47.70;;;26.20;;
41293;SDS011;27037;52.010;4.446;2023-03-01T07:44:23;53.78;;;27.65;;
41293;SDS011;27037;52.010;4.446;2023-03-01T07:46:49;52.30;;;27.70;;
41293;SDS011;27037;52.010;4.446;2023-03-01T07:49:14;50.88;;;28.15;;
41293;SDS011;27037;52.010;4.446;2023-03-01T07:51:40;50.22;;;27.13;;
41293;SDS011;27037;52.010;4.446;2023-03-01T07:54:06;52.90;;;27.80;;
41293;SDS011;27037;52.010;4.446;2023-03-01T07:56:32;55.30;;;29.17;;
41293;SDS011;27037;52.010;4.446;2023-03-01T07:58:58;57.97;;;30.75;;
41293;SDS011;27037;52.010;4.446;2023-03-01T08:01:24;59.25;;;30.42;;
41293;SDS011;27037;52.010;4.446;2023-03-01T08:03:50;59.90;;;31.45;;
41293;SDS011;27037;52.010;4.446;2023-03-01T08:06:16;60.70;;;32.00;;
41293;SDS011;27037;52.010;4.446;2023-03-01T08:08:42;62.03;;;32.00;;
41293;SDS011;27037;52.010;4.446;2023-03-01T08:11:10;59.83;;;31.67;;
41293;SDS011;27037;52.010;4.446;2023-03-01T08:13:37;59.92;;;32.03;;
41293;SDS011;27037;52.010;4.446;2023-03-01T08:16:03;62.42;;;33.20;;
41293;SDS011;27037;52.010;4.446;2023-03-01T08:18:31;61.45;;;31.63;;
41293;SDS011;27037;52.010;4.446;2023-03-01T08:21:08;57.80;;;30.98;;
41293;SDS011;27037;52.010;4.446;2023-03-01T08:23:41;53.65;;;29.27;;
41293;SDS011;27037;52.010;4.446;2023-03-01T08:26:14;56.38;;;30.17;;
41293;SDS011;27037;52.010;4.446;2023-03-01T08:28:40;55.33;;;30.23;;
41293;SDS011;27037;52.010;4.446;2023-03-01T08:31:40;56.85;;;29.83;;
41293;SDS011;27037;52.010;4.446;2023-03-01T08:34:05;54.15;;;29.25;;
41293;SDS011;27037;52.010;4.446;2023-03-01T08:36:37;57.03;;;30.67;;
41293;SDS011;27037;52.010;4.446;2023-03-01T08:39:05;62.80;;;31.63;;
41293;SDS011;27037;52.010;4.446;2023-03-01T08:41:31;57.15;;;30.98;;
41293;SDS011;27037;52.010;4.446;2023-03-01T08:43:57;56.28;;;30.20;;
41293;SDS011;27037;52.010;4.446;2023-03-01T08:46:26;56.47;;;29.50;;
41293;SDS011;27037;52.010;4.446;2023-03-01T08:49:06;52.22;;;25.98;;
41293;SDS011;27037;52.010;4.446;2023-03-01T08:51:33;46.83;;;25.83;;
41293;SDS011;27037;52.010;4.446;2023-03-01T08:54:05;45.22;;;25.38;;
41293;SDS011;27037;52.010;4.446;2023-03-01T08:56:32;39.83;;;22.30;;
41293;SDS011;27037;52.010;4.446;2023-03-01T08:58:58;43.08;;;23.60;;
41293;SDS011;27037;52.010;4.446;2023-03-01T09:01:24;43.03;;;23.85;;
41293;SDS011;27037;52.010;4.446;2023-03-01T09:03:49;35.63;;;20.63;;
41293;SDS011;27037;52.010;4.446;2023-03-01T09:06:15;28.63;;;17.48;;
41293;SDS011;27037;52.010;4.446;2023-03-01T09:08:42;29.98;;;16.98;;
41293;SDS011;27037;52.010;4.446;2023-03-01T09:11:11;27.38;;;16.58;;
41293;SDS011;27037;52.010;4.446;2023-03-01T09:13:40;28.25;;;16.25;;
41293;SDS011;27037;52.010;4.446;2023-03-01T09:16:06;24.77;;;14.50;;
41293;SDS011;27037;52.010;4.446;2023-03-01T09:18:33;21.55;;;13.73;;
41293;SDS011;27037;52.010;4.446;2023-03-01T09:21:03;20.27;;;12.77;;
41293;SDS011;27037;52.010;4.446;2023-03-01T09:23:32;22.42;;;12.73;;
41293;SDS011;27037;52.010;4.446;2023-03-01T09:25:59;20.67;;;13.35;;
41293;SDS011;27037;52.010;4.446;2023-03-01T09:28:25;21.17;;;13.00;;
41293;SDS011;27037;52.010;4.446;2023-03-01T09:30:51;19.45;;;12.80;;
41293;SDS011;27037;52.010;4.446;2023-03-01T09:33:16;18.65;;;11.73;;
41293;SDS011;27037;52.010;4.446;2023-03-01T09:35:42;17.75;;;11.15;;
41293;SDS011;27037;52.010;4.446;2023-03-01T09:38:12;19.40;;;12.13;;
41293;SDS011;27037;52.010;4.446;2023-03-01T09:40:41;20.25;;;11.85;;
41293;SDS011;27037;52.010;4.446;2023-03-01T09:46:02;15.65;;;10.40;;
41293;SDS011;27037;52.010;4.446;2023-03-01T09:48:33;18.23;;;10.80;;
41293;SDS011;27037;52.010;4.446;2023-03-01T09:51:27;14.20;;;9.48;;
41293;SDS011;27037;52.010;4.446;2023-03-01T09:53:56;15.45;;;9.13;;
41293;SDS011;27037;52.010;4.446;2023-03-01T09:56:32;13.60;;;8.60;;
41293;SDS011;27037;52.010;4.446;2023-03-01T10:04:12;14.25;;;7.97;;
41293;SDS011;27037;52.010;4.446;2023-03-01T10:06:45;14.40;;;8.70;;
41293;SDS011;27037;52.010;4.446;2023-03-01T10:09:40;13.88;;;8.63;;
41293;SDS011;27037;52.010;4.446;2023-03-01T10:12:09;13.73;;;8.77;;
41293;SDS011;27037;52.010;4.446;2023-03-01T10:17:27;12.43;;;7.00;;
41293;SDS011;27037;52.010;4.446;2023-03-01T10:19:57;11.20;;;7.55;;
41293;SDS011;27037;52.010;4.446;2023-03-01T10:22:42;10.43;;;6.93;;
41293;SDS011;27037;52.010;4.446;2023-03-01T10:25:12;12.25;;;7.30;;
41293;SDS011;27037;52.010;4.446;2023-03-01T10:30:38;11.30;;;6.63;;
41293;SDS011;27037;52.010;4.446;2023-03-01T10:33:23;9.68;;;6.68;;
41293;SDS011;27037;52.010;4.446;2023-03-01T10:35:55;10.98;;;7.40;;
41293;SDS011;27037;52.010;4.446;2023-03-01T10:38:22;10.50;;;6.25;;
41293;SDS011;27037;52.010;4.446;2023-03-01T10:43:25;16.40;;;7.55;;
41293;SDS011;27037;52.010;4.446;2023-03-01T10:45:52;11.10;;;7.40;;
41293;SDS011;27037;52.010;4.446;2023-03-01T10:48:21;8.38;;;6.28;;
41293;SDS011;27037;52.010;4.446;2023-03-01T10:55:58;11.88;;;7.65;;
41293;SDS011;27037;52.010;4.446;2023-03-01T10:58:30;12.25;;;7.22;;
41293;SDS011;27037;52.010;4.446;2023-03-01T11:00:58;11.38;;;6.97;;
41293;SDS011;27037;52.010;4.446;2023-03-01T11:03:42;11.73;;;7.80;;
41293;SDS011;27037;52.010;4.446;2023-03-01T11:08:37;10.85;;;6.95;;
41293;SDS011;27037;52.010;4.446;2023-03-01T11:11:22;12.30;;;8.15;;
41293;SDS011;27037;52.010;4.446;2023-03-01T11:16:29;11.32;;;7.70;;
41293;SDS011;27037;52.010;4.446;2023-03-01T11:19:00;11.10;;;7.78;;
41293;SDS011;27037;52.010;4.446;2023-03-01T11:21:30;12.27;;;8.48;;
41293;SDS011;27037;52.010;4.446;2023-03-01T11:24:00;11.45;;;8.55;;
41293;SDS011;27037;52.010;4.446;2023-03-01T11:26:27;17.10;;;8.75;;
41293;SDS011;27037;52.010;4.446;2023-03-01T11:28:55;13.45;;;8.95;;
41293;SDS011;27037;52.010;4.446;2023-03-01T11:31:26;16.67;;;9.10;;
41293;SDS011;27037;52.010;4.446;2023-03-01T11:34:13;12.73;;;9.65;;
41293;SDS011;27037;52.010;4.446;2023-03-01T11:36:48;14.82;;;9.38;;
41293;SDS011;27037;52.010;4.446;2023-03-01T11:39:42;14.77;;;9.52;;
41293;SDS011;27037;52.010;4.446;2023-03-01T11:44:59;14.20;;;8.65;;
41293;SDS011;27037;52.010;4.446;2023-03-01T11:47:40;13.23;;;9.00;;
41293;SDS011;27037;52.010;4.446;2023-03-01T11:50:18;13.07;;;8.93;;
41293;SDS011;27037;52.010;4.446;2023-03-01T11:52:48;14.43;;;9.30;;
41293;SDS011;27037;52.010;4.446;2023-03-01T11:58:40;17.88;;;10.35;;
41293;SDS011;27037;52.010;4.446;2023-03-01T12:04:14;14.75;;;9.73;;
41293;SDS011;27037;52.010;4.446;2023-03-01T12:31:29;18.38;;;11.90;;
41293;SDS011;27037;52.010;4.446;2023-03-01T12:34:33;18.75;;;12.20;;
41293;SDS011;27037;52.010;4.446;2023-03-01T12:39:53;20.67;;;12.65;;
41293;SDS011;27037;52.010;4.446;2023-03-01T12:51:04;18.38;;;11.52;;
41293;SDS011;27037;52.010;4.446;2023-03-01T12:53:36;17.30;;;10.65;;
41293;SDS011;27037;52.010;4.446;2023-03-01T12:56:08;18.95;;;10.32;;
41293;SDS011;27037;52.010;4.446;2023-03-01T13:11:52;14.63;;;8.98;;
41293;SDS011;27037;52.010;4.446;2023-03-01T13:16:48;13.63;;;8.98;;
41293;SDS011;27037;52.010;4.446;2023-03-01T13:19:15;13.90;;;8.80;;
41293;SDS011;27037;52.010;4.446;2023-03-01T13:21:43;13.80;;;8.68;;
41293;SDS011;27037;52.010;4.446;2023-03-01T13:32:25;12.73;;;7.55;;
41293;SDS011;27037;52.010;4.446;2023-03-01T13:37:35;13.65;;;7.93;;
41293;SDS011;27037;52.010;4.446;2023-03-01T13:42:48;11.07;;;7.22;;
41293;SDS011;27037;52.010;4.446;2023-03-01T13:48:20;12.02;;;7.30;;
41293;SDS011;27037;52.010;4.446;2023-03-01T13:50:51;9.73;;;6.85;;
41293;SDS011;27037;52.010;4.446;2023-03-01T13:53:24;15.60;;;7.00;;
41293;SDS011;27037;52.010;4.446;2023-03-01T13:55:56;10.75;;;6.80;;
41293;SDS011;27037;52.010;4.446;2023-03-01T13:58:29;12.15;;;6.85;;
41293;SDS011;27037;52.010;4.446;2023-03-01T14:03:27;12.73;;;6.68;;
41293;SDS011;27037;52.010;4.446;2023-03-01T14:08:27;13.00;;;7.25;;
41293;SDS011;27037;52.010;4.446;2023-03-01T14:19:24;9.07;;;6.07;;
41293;SDS011;27037;52.010;4.446;2023-03-01T14:24:51;12.43;;;7.20;;
41293;SDS011;27037;52.010;4.446;2023-03-01T14:27:23;13.43;;;7.13;;
41293;SDS011;27037;52.010;4.446;2023-03-01T14:29:58;9.40;;;6.87;;
41293;SDS011;27037;52.010;4.446;2023-03-01T14:32:26;10.18;;;6.20;;
41293;SDS011;27037;52.010;4.446;2023-03-01T14:34:54;8.45;;;6.60;;
41293;SDS011;27037;52.010;4.446;2023-03-01T14:37:22;9.90;;;6.60;;
41293;SDS011;27037;52.010;4.446;2023-03-01T14:39:51;11.15;;;7.05;;
41293;SDS011;27037;52.010;4.446;2023-03-01T14:42:18;10.55;;;7.28;;
41293;SDS011;27037;52.010;4.446;2023-03-01T14:44:47;9.45;;;6.32;;
41293;SDS011;27037;52.010;4.446;2023-03-01T14:49:56;8.23;;;6.40;;
41293;SDS011;27037;52.010;4.446;2023-03-01T14:52:25;10.07;;;6.78;;
41293;SDS011;27037;52.010;4.446;2023-03-01T14:55:21;8.88;;;6.25;;
41293;SDS011;27037;52.010;4.446;2023-03-01T14:58:11;10.45;;;6.38;;
41293;SDS011;27037;52.010;4.446;2023-03-01T15:00:39;11.73;;;7.57;;
41293;SDS011;27037;52.010;4.446;2023-03-01T15:03:25;9.55;;;6.88;;
41293;SDS011;27037;52.010;4.446;2023-03-01T15:05:57;10.43;;;6.50;;
41293;SDS011;27037;52.010;4.446;2023-03-01T15:08:25;11.48;;;7.40;;
41293;SDS011;27037;52.010;4.446;2023-03-01T15:10:59;10.70;;;6.50;;
41293;SDS011;27037;52.010;4.446;2023-03-01T15:13:25;11.05;;;6.93;;
41293;SDS011;27037;52.010;4.446;2023-03-01T15:16:01;8.18;;;6.22;;
41293;SDS011;27037;52.010;4.446;2023-03-01T15:18:31;9.90;;;6.68;;
41293;SDS011;27037;52.010;4.446;2023-03-01T15:21:15;10.00;;;6.80;;
41293;SDS011;27037;52.010;4.446;2023-03-01T15:23:47;8.57;;;6.30;;
41293;SDS011;27037;52.010;4.446;2023-03-01T15:26:31;10.68;;;6.25;;
41293;SDS011;27037;52.010;4.446;2023-03-01T15:29:02;12.70;;;6.60;;
41293;SDS011;27037;52.010;4.446;2023-03-01T15:31:32;8.73;;;6.32;;
41293;SDS011;27037;52.010;4.446;2023-03-01T15:36:48;10.68;;;6.03;;
41293;SDS011;27037;52.010;4.446;2023-03-01T15:42:05;9.60;;;6.25;;
41293;SDS011;27037;52.010;4.446;2023-03-01T15:45:10;9.05;;;5.85;;
41293;SDS011;27037;52.010;4.446;2023-03-01T15:47:55;10.75;;;5.90;;
41293;SDS011;27037;52.010;4.446;2023-03-01T15:50:27;10.82;;;6.05;;
41293;SDS011;27037;52.010;4.446;2023-03-01T15:52:54;11.10;;;5.88;;
41293;SDS011;27037;52.010;4.446;2023-03-01T15:55:22;10.80;;;6.72;;
41293;SDS011;27037;52.010;4.446;2023-03-01T15:57:48;8.77;;;5.68;;
41293;SDS011;27037;52.010;4.446;2023-03-01T16:00:15;8.60;;;5.70;;
41293;SDS011;27037;52.010;4.446;2023-03-01T16:02:43;13.00;;;5.80;;
41293;SDS011;27037;52.010;4.446;2023-03-01T16:05:17;9.18;;;5.80;;
41293;SDS011;27037;52.010;4.446;2023-03-01T16:07:48;11.38;;;6.47;;
41293;SDS011;27037;52.010;4.446;2023-03-01T16:10:14;9.82;;;6.43;;
41293;SDS011;27037;52.010;4.446;2023-03-01T16:12:40;11.00;;;6.00;;
41293;SDS011;27037;52.010;4.446;2023-03-01T16:15:16;13.48;;;7.18;;
41293;SDS011;27037;52.010;4.446;2023-03-01T16:17:44;11.48;;;6.68;;
41293;SDS011;27037;52.010;4.446;2023-03-01T16:20:10;14.93;;;6.38;;
41293;SDS011;27037;52.010;4.446;2023-03-01T16:22:37;9.68;;;6.15;;
41293;SDS011;27037;52.010;4.446;2023-03-01T16:25:02;8.20;;;5.75;;
41293;SDS011;27037;52.010;4.446;2023-03-01T16:27:28;11.43;;;6.18;;
41293;SDS011;27037;52.010;4.446;2023-03-01T16:29:54;8.43;;;5.97;;
41293;SDS011;27037;52.010;4.446;2023-03-01T16:32:20;10.05;;;6.18;;
41293;SDS011;27037;52.010;4.446;2023-03-01T16:34:45;11.80;;;6.50;;
41293;SDS011;27037;52.010;4.446;2023-03-01T16:37:14;12.20;;;6.93;;
41293;SDS011;27037;52.010;4.446;2023-03-01T16:39:40;10.57;;;6.60;;
41293;SDS011;27037;52.010;4.446;2023-03-01T16:42:06;12.05;;;6.57;;
41293;SDS011;27037;52.010;4.446;2023-03-01T16:44:31;15.13;;;6.65;;
41293;SDS011;27037;52.010;4.446;2023-03-01T16:46:57;11.30;;;6.68;;
41293;SDS011;27037;52.010;4.446;2023-03-01T16:49:22;11.05;;;6.78;;
41293;SDS011;27037;52.010;4.446;2023-03-01T16:51:48;13.02;;;7.25;;
41293;SDS011;27037;52.010;4.446;2023-03-01T16:54:14;12.93;;;7.10;;
41293;SDS011;27037;52.010;4.446;2023-03-01T16:56:39;11.88;;;6.85;;
41293;SDS011;27037;52.010;4.446;2023-03-01T16:59:05;13.40;;;6.90;;
41293;SDS011;27037;52.010;4.446;2023-03-01T17:01:31;12.30;;;7.05;;
41293;SDS011;27037;52.010;4.446;2023-03-01T17:04:05;11.57;;;7.00;;